createdAt,value
2022-11-19T00:04:01.468Z,0.25
2022-11-19T00:09:05.658Z,0.21
2022-11-19T00:14:12.666Z,0.15
2022-11-19T00:19:14.922Z,0.16
2022-11-19T00:24:17.066Z,0.18
2022-11-19T00:29:19.159Z,0.18
2022-11-19T00:34:22.964Z,0.19
2022-11-19T00:39:24.815Z,0.16
2022-11-19T00:44:26.694Z,0.13
2022-11-19T00:49:28.556Z,0.11
2022-11-19T00:54:30.724Z,0.11
2022-11-19T00:59:32.621Z,0.08
2022-11-19T01:04:34.555Z,0.14
2022-11-19T01:09:36.465Z,0.16
2022-11-19T01:14:38.449Z,0.17
2022-11-19T01:19:40.367Z,0.12
2022-11-19T01:24:42.185Z,0.10
2022-11-19T01:29:44.112Z,0.10
2022-11-19T01:34:46.032Z,0.14
2022-11-19T01:39:48.013Z,0.16
2022-11-19T01:45:02.701Z,0.18
2022-11-19T01:50:05.750Z,0.17
2022-11-19T01:55:08.686Z,0.14
2022-11-19T02:00:11.644Z,0.12
2022-11-19T02:05:13.958Z,0.12
2022-11-19T02:10:16.131Z,0.09
2022-11-19T02:15:23.244Z,0.08
2022-11-19T02:20:34.203Z,0.11
2022-11-19T02:25:38.989Z,0.13
2022-11-19T02:30:46.710Z,0.14
2022-11-19T02:35:58.854Z,0.12
2022-11-19T02:41:32.289Z,0.09
2022-11-19T02:46:34.363Z,0.06
2022-11-19T02:51:36.398Z,0.02
2022-11-19T02:56:52.056Z,-0.01
2022-11-19T03:02:12.620Z,-0.04
2022-11-19T03:07:18.291Z,-0.06
2022-11-19T03:12:35.545Z,-0.11
2022-11-19T03:18:09.685Z,-0.14
2022-11-19T03:23:27.171Z,-0.15
2022-11-19T03:28:34.233Z,-0.10
2022-11-19T03:33:47.487Z,-0.06
2022-11-19T03:39:04.295Z,-0.05
2022-11-19T03:44:18.863Z,-0.06
2022-11-19T03:49:31.708Z,-0.11
2022-11-19T03:54:34.268Z,-0.15
2022-11-19T03:59:36.234Z,-0.14
2022-11-19T04:04:39.031Z,-0.15
2022-11-19T04:09:42.028Z,-0.22
2022-11-19T04:14:43.932Z,-0.27
2022-11-19T04:19:46.730Z,-0.26
2022-11-19T04:24:48.626Z,-0.23
2022-11-19T04:29:50.501Z,-0.22
2022-11-19T04:34:52.361Z,-0.21
2022-11-19T04:39:54.160Z,-0.18
2022-11-19T04:44:56.004Z,-0.16
2022-11-19T04:49:57.828Z,-0.13
2022-11-19T04:54:59.640Z,-0.09
2022-11-19T05:00:01.570Z,-0.09
2022-11-19T05:05:03.598Z,-0.09
2022-11-19T05:10:05.902Z,-0.04
2022-11-19T05:15:08.713Z,-0.02
2022-11-19T05:20:10.848Z,0.01
2022-11-19T05:25:12.765Z,0.03
2022-11-19T05:30:15.227Z,0.04
2022-11-19T05:35:17.214Z,0.09
2022-11-19T05:40:19.078Z,0.07
2022-11-19T05:45:21.197Z,0.09
2022-11-19T05:50:23.145Z,0.05
2022-11-19T05:55:25.128Z,0.07
2022-11-19T06:00:27.027Z,0.04
2022-11-19T06:05:28.821Z,0.00
2022-11-19T06:10:30.625Z,0.02
2022-11-19T06:15:32.454Z,0.01
2022-11-19T06:20:34.319Z,0.02
2022-11-19T06:25:36.258Z,0.05
2022-11-19T06:30:38.281Z,0.06
2022-11-19T06:35:40.134Z,0.09
2022-11-19T06:40:42.822Z,0.13
2022-11-19T06:45:44.726Z,0.20
2022-11-19T06:50:47.221Z,0.28
2022-11-19T06:55:49.111Z,0.28
2022-11-19T07:00:51.150Z,0.24
2022-11-19T07:05:59.211Z,0.28
2022-11-19T07:11:22.392Z,0.31
2022-11-19T07:16:33.253Z,0.33
2022-11-19T07:21:36.283Z,0.34
2022-11-19T07:26:38.541Z,0.33
2022-11-19T07:31:40.581Z,0.32
2022-11-19T07:36:42.869Z,0.37
2022-11-19T07:42:03.638Z,0.45
2022-11-19T07:47:08.363Z,0.56
2022-11-19T07:52:10.221Z,0.60
2022-11-19T07:57:12.277Z,0.64
2022-11-19T08:02:15.179Z,0.66
2022-11-19T08:07:17.311Z,0.65
2022-11-19T08:12:19.418Z,0.71
2022-11-19T08:17:40.022Z,0.71
2022-11-19T08:22:42.932Z,0.77
2022-11-19T08:27:44.802Z,0.88
2022-11-19T08:32:46.812Z,0.96
2022-11-19T08:37:48.829Z,1.10
2022-11-19T08:42:59.945Z,1.25
2022-11-19T08:48:05.572Z,1.41
2022-11-19T08:53:07.518Z,1.52
2022-11-19T08:58:11.435Z,1.63
2022-11-19T09:03:13.266Z,1.72
2022-11-19T09:08:15.131Z,1.81
2022-11-19T09:13:17.024Z,1.99
2022-11-19T09:18:18.932Z,2.22
2022-11-19T09:23:21.559Z,2.42
2022-11-19T09:28:23.426Z,2.52
2022-11-19T09:33:26.124Z,2.61
2022-11-19T09:38:28.498Z,2.70
2022-11-19T09:43:49.213Z,2.75
2022-11-19T09:48:55.033Z,2.75
2022-11-19T09:54:05.981Z,2.74
2022-11-19T09:59:21.733Z,2.87
2022-11-19T10:04:26.992Z,2.98
2022-11-19T10:09:31.991Z,3.04
2022-11-19T10:14:43.184Z,2.93
2022-11-19T10:20:10.291Z,3.18
2022-11-19T10:25:22.952Z,3.34
2022-11-19T10:30:29.025Z,3.34
2022-11-19T10:35:39.039Z,3.24
2022-11-19T10:40:44.985Z,3.27
2022-11-19T10:45:46.793Z,3.45
2022-11-19T10:50:49.641Z,3.56
2022-11-19T10:55:57.773Z,3.62
2022-11-19T11:01:02.658Z,3.86
2022-11-19T11:06:07.912Z,4.04
2022-11-19T11:11:11.070Z,4.18
2022-11-19T11:16:20.169Z,3.99
2022-11-19T11:21:30.606Z,3.97
2022-11-19T11:26:34.815Z,4.15
2022-11-19T11:31:47.348Z,4.54
2022-11-19T11:36:49.230Z,4.82
2022-11-19T11:42:05.410Z,4.93
2022-11-19T11:47:15.165Z,5.02
2022-11-19T11:52:33.695Z,4.71
2022-11-19T11:57:49.992Z,4.11
2022-11-19T12:03:05.945Z,3.96
2022-11-19T12:08:27.107Z,3.64
2022-11-19T12:13:43.968Z,3.51
2022-11-19T12:18:45.790Z,3.40
2022-11-19T12:24:15.910Z,3.17
2022-11-19T12:29:36.673Z,3.06
2022-11-19T12:34:57.147Z,3.05
2022-11-19T12:40:20.602Z,2.94
2022-11-19T12:45:30.628Z,2.87
2022-11-19T12:50:50.937Z,2.80
2022-11-19T12:56:15.691Z,2.65
2022-11-19T13:01:27.494Z,2.49
2022-11-19T13:06:41.721Z,2.35
2022-11-19T13:11:50.024Z,2.30
2022-11-19T13:16:54.598Z,2.41
2022-11-19T13:22:02.662Z,2.62
2022-11-19T13:27:09.667Z,2.10
2022-11-19T13:32:48.023Z,1.52
2022-11-19T13:38:02.918Z,1.46
2022-11-19T13:43:32.533Z,1.61
2022-11-19T13:48:41.689Z,1.59
2022-11-19T13:53:46.323Z,1.43
2022-11-19T13:58:51.757Z,1.24
2022-11-19T14:04:28.038Z,1.11
2022-11-19T14:09:48.739Z,0.92
2022-11-19T14:15:40.392Z,0.76
2022-11-19T14:21:02.978Z,0.56
2022-11-19T14:26:22.543Z,0.43
2022-11-19T14:31:24.543Z,0.32
2022-11-19T14:36:29.602Z,0.19
2022-11-19T14:41:33.893Z,0.08
2022-11-19T14:46:45.796Z,-0.03
2022-11-19T14:51:53.656Z,-0.10
2022-11-19T14:57:13.683Z,-0.18
2022-11-19T15:02:34.601Z,-0.26
2022-11-19T15:07:39.951Z,-0.34
2022-11-19T15:12:44.913Z,-0.41
2022-11-19T15:17:50.876Z,-0.48
2022-11-19T15:23:06.717Z,-0.52
2022-11-19T15:28:18.846Z,-0.58
2022-11-19T15:33:47.159Z,-0.64
2022-11-19T15:38:57.616Z,-0.70
2022-11-19T15:44:04.508Z,-0.73
2022-11-19T15:49:26.949Z,-0.78
2022-11-19T15:54:34.704Z,-0.81
2022-11-19T15:59:38.406Z,-0.85
2022-11-19T16:04:41.069Z,-0.89
2022-11-19T16:09:42.963Z,-0.96
2022-11-19T16:15:12.309Z,-0.98
2022-11-19T16:20:14.125Z,-1.03
2022-11-19T16:25:31.496Z,-1.09
2022-11-19T16:30:46.429Z,-1.16
2022-11-19T16:35:52.829Z,-1.21
2022-11-19T16:41:16.030Z,-1.27
2022-11-19T16:46:22.358Z,-1.36
2022-11-19T16:51:31.881Z,-1.45
2022-11-19T16:56:45.935Z,-1.45
2022-11-19T17:01:54.072Z,-1.50
2022-11-19T17:06:57.748Z,-1.55
2022-11-19T17:12:18.024Z,-1.60
2022-11-19T17:17:39.980Z,-1.65
2022-11-19T17:22:42.564Z,-1.70
2022-11-19T17:27:51.399Z,-1.78
2022-11-19T17:32:54.588Z,-1.84
2022-11-19T17:37:58.931Z,-1.89
2022-11-19T17:43:19.650Z,-1.95
2022-11-19T17:48:24.152Z,-2.01
2022-11-19T17:53:26.133Z,-2.06
2022-11-19T17:58:28.086Z,-2.12
2022-11-19T18:03:30.045Z,-2.20
2022-11-19T18:08:33.078Z,-2.26
2022-11-19T18:13:36.826Z,-2.30
2022-11-19T18:18:38.704Z,-2.34
2022-11-19T18:23:41.954Z,-2.37
2022-11-19T18:28:47.735Z,-2.42
2022-11-19T18:33:50.930Z,-2.53
2022-11-19T18:38:55.757Z,-2.63
2022-11-19T18:44:16.417Z,-2.64
2022-11-19T18:49:18.577Z,-2.57
2022-11-19T18:54:21.042Z,-2.51
2022-11-19T18:59:23.960Z,-2.47
2022-11-19T19:04:26.538Z,-2.49
2022-11-19T19:09:28.425Z,-2.54
2022-11-19T19:14:30.293Z,-2.59
2022-11-19T19:19:32.193Z,-2.67
2022-11-19T19:24:34.101Z,-2.73
2022-11-19T19:29:35.994Z,-2.78
2022-11-19T19:34:37.891Z,-2.80
2022-11-19T19:39:39.777Z,-2.85
2022-11-19T19:44:41.673Z,-2.86
2022-11-19T19:49:43.675Z,-2.87
2022-11-19T19:54:45.556Z,-2.90
2022-11-19T19:59:47.432Z,-2.94
2022-11-19T20:04:49.322Z,-2.97
2022-11-19T20:09:51.207Z,-3.00
2022-11-19T20:14:53.101Z,-3.02
2022-11-19T20:19:54.924Z,-3.07
2022-11-19T20:24:56.765Z,-3.12
2022-11-19T20:30:00.087Z,-3.14
2022-11-19T20:35:02.160Z,-3.16
2022-11-19T20:40:04.263Z,-3.19
2022-11-19T20:45:08.407Z,-3.21
2022-11-19T20:50:10.448Z,-3.24
2022-11-19T20:55:12.364Z,-3.26
2022-11-19T21:00:15.373Z,-3.27
2022-11-19T21:05:17.354Z,-3.28
2022-11-19T21:10:19.428Z,-3.29
2022-11-19T21:15:21.228Z,-3.31
2022-11-19T21:20:23.332Z,-3.33
2022-11-19T21:25:25.260Z,-3.37
2022-11-19T21:30:27.192Z,-3.38
2022-11-19T21:35:29.065Z,-3.40
2022-11-19T21:40:30.974Z,-3.42
2022-11-19T21:45:32.948Z,-3.44
2022-11-19T21:50:38.588Z,-3.46
2022-11-19T21:55:45.001Z,-3.48
2022-11-19T22:00:47.135Z,-3.50
2022-11-19T22:05:59.313Z,-3.51
2022-11-19T22:11:21.445Z,-3.51
2022-11-19T22:16:24.541Z,-3.54
2022-11-19T22:21:29.254Z,-3.58
2022-11-19T22:26:31.303Z,-3.60
2022-11-19T22:31:34.044Z,-3.54
2022-11-19T22:36:35.925Z,-3.54
2022-11-19T22:41:37.732Z,-3.56
2022-11-19T22:46:39.529Z,-3.58
2022-11-19T22:51:41.521Z,-3.60
2022-11-19T22:56:43.504Z,-3.60
2022-11-19T23:01:45.335Z,-3.63
2022-11-19T23:06:47.224Z,-3.64
2022-11-19T23:12:07.882Z,-3.68
2022-11-19T23:17:09.732Z,-3.70
2022-11-19T23:22:11.537Z,-3.71
2022-11-19T23:27:16.722Z,-3.73
2022-11-19T23:32:22.632Z,-3.75
2022-11-19T23:37:24.458Z,-3.76
2022-11-19T23:42:26.409Z,-3.78
2022-11-19T23:47:28.207Z,-3.81
2022-11-19T23:52:30.073Z,-3.85
2022-11-19T23:57:31.954Z,-3.85
